< < Back
Terminal Aerodrome Forecast


Current Version              Previous Versions:   1  2  3  4  5  6  7  8  9  

Terminal Aerodrome Forecast

466
FTUS42 KGSP 190200 AAA
TAFHKY
TAF AMD
KHKY 190211Z 1902/1924 VRB03KT 5SM -RA BR OVC080
     FM190600 03006KT 6SM RA BR OVC015
     FM191100 02010KT P6SM -RA OVC015
     FM191500 03012KT P6SM OVC015
     FM192300 04008KT P6SM BKN025=



Latest METAR

444
SAUS70 KWBC 190400 RRB
MTRHKY
METAR KHKY 190353Z AUTO 01004KT 10SM -RA OVC100 08/06 A3020 RMK AO2
SLP217 P0002 T00830061


USA.gov is the U.S. government's official web portal to all federal, state and local government web resources and services.